sensor_id;sensor_type;location;lat;lon;timestamp;P1;durP1;ratioP1;P2;durP2;ratioP2
3733;SDS011;1882;52.256;8.874;2023-05-14T00:02:02;11.00;;;5.40;;
3733;SDS011;1882;52.256;8.874;2023-05-14T00:04:29;6.97;;;5.10;;
3733;SDS011;1882;52.256;8.874;2023-05-14T00:06:58;5.97;;;5.23;;
3733;SDS011;1882;52.256;8.874;2023-05-14T00:09:25;6.00;;;5.17;;
3733;SDS011;1882;52.256;8.874;2023-05-14T00:11:52;6.67;;;5.40;;
3733;SDS011;1882;52.256;8.874;2023-05-14T00:14:24;6.00;;;5.40;;
3733;SDS011;1882;52.256;8.874;2023-05-14T00:16:54;6.57;;;5.40;;
3733;SDS011;1882;52.256;8.874;2023-05-14T00:19:21;8.17;;;5.40;;
3733;SDS011;1882;52.256;8.874;2023-05-14T00:21:51;9.03;;;5.30;;
3733;SDS011;1882;52.256;8.874;2023-05-14T00:24:19;6.50;;;5.37;;
3733;SDS011;1882;52.256;8.874;2023-05-14T00:26:48;7.83;;;5.37;;
3733;SDS011;1882;52.256;8.874;2023-05-14T00:29:15;12.57;;;5.50;;
3733;SDS011;1882;52.256;8.874;2023-05-14T00:31:42;9.63;;;5.53;;
3733;SDS011;1882;52.256;8.874;2023-05-14T00:34:09;7.37;;;5.57;;
3733;SDS011;1882;52.256;8.874;2023-05-14T00:36:36;7.23;;;5.63;;
3733;SDS011;1882;52.256;8.874;2023-05-14T00:39:03;6.00;;;4.93;;
3733;SDS011;1882;52.256;8.874;2023-05-14T00:41:30;10.53;;;5.30;;
3733;SDS011;1882;52.256;8.874;2023-05-14T00:43:57;8.80;;;6.00;;
3733;SDS011;1882;52.256;8.874;2023-05-14T00:46:25;9.77;;;5.10;;
3733;SDS011;1882;52.256;8.874;2023-05-14T00:48:52;6.50;;;5.30;;
3733;SDS011;1882;52.256;8.874;2023-05-14T00:51:19;6.17;;;5.13;;
3733;SDS011;1882;52.256;8.874;2023-05-14T00:53:49;6.77;;;5.73;;
3733;SDS011;1882;52.256;8.874;2023-05-14T00:56:16;6.30;;;5.13;;
3733;SDS011;1882;52.256;8.874;2023-05-14T00:58:45;5.30;;;4.80;;
3733;SDS011;1882;52.256;8.874;2023-05-14T01:01:13;9.20;;;5.90;;
3733;SDS011;1882;52.256;8.874;2023-05-14T01:03:40;5.63;;;5.03;;
3733;SDS011;1882;52.256;8.874;2023-05-14T01:06:16;6.40;;;4.90;;
3733;SDS011;1882;52.256;8.874;2023-05-14T01:08:58;7.03;;;5.50;;
3733;SDS011;1882;52.256;8.874;2023-05-14T01:12:07;8.07;;;5.60;;
3733;SDS011;1882;52.256;8.874;2023-05-14T01:14:41;7.07;;;5.50;;
3733;SDS011;1882;52.256;8.874;2023-05-14T01:17:10;5.47;;;4.90;;
3733;SDS011;1882;52.256;8.874;2023-05-14T01:19:40;6.30;;;5.23;;
3733;SDS011;1882;52.256;8.874;2023-05-14T01:22:08;6.10;;;5.13;;
3733;SDS011;1882;52.256;8.874;2023-05-14T01:24:35;6.30;;;5.30;;
3733;SDS011;1882;52.256;8.874;2023-05-14T01:27:05;7.93;;;5.00;;
3733;SDS011;1882;52.256;8.874;2023-05-14T01:29:36;12.33;;;5.73;;
3733;SDS011;1882;52.256;8.874;2023-05-14T01:32:05;6.30;;;5.40;;
3733;SDS011;1882;52.256;8.874;2023-05-14T01:34:34;7.23;;;5.30;;
3733;SDS011;1882;52.256;8.874;2023-05-14T01:37:01;10.63;;;5.47;;
3733;SDS011;1882;52.256;8.874;2023-05-14T01:39:29;6.97;;;4.90;;
3733;SDS011;1882;52.256;8.874;2023-05-14T01:41:57;6.57;;;5.60;;
3733;SDS011;1882;52.256;8.874;2023-05-14T01:44:26;6.97;;;5.60;;
3733;SDS011;1882;52.256;8.874;2023-05-14T01:46:53;11.87;;;5.57;;
3733;SDS011;1882;52.256;8.874;2023-05-14T01:49:20;7.90;;;5.93;;
3733;SDS011;1882;52.256;8.874;2023-05-14T01:51:47;9.53;;;5.77;;
3733;SDS011;1882;52.256;8.874;2023-05-14T01:54:14;6.87;;;5.43;;
3733;SDS011;1882;52.256;8.874;2023-05-14T01:56:41;8.70;;;5.67;;
3733;SDS011;1882;52.256;8.874;2023-05-14T01:59:08;9.10;;;5.93;;
3733;SDS011;1882;52.256;8.874;2023-05-14T02:01:35;9.23;;;5.87;;
3733;SDS011;1882;52.256;8.874;2023-05-14T02:04:02;11.10;;;7.23;;
3733;SDS011;1882;52.256;8.874;2023-05-14T02:06:29;7.27;;;6.47;;
3733;SDS011;1882;52.256;8.874;2023-05-14T02:08:57;9.50;;;6.70;;
3733;SDS011;1882;52.256;8.874;2023-05-14T02:11:23;10.87;;;7.50;;
3733;SDS011;1882;52.256;8.874;2023-05-14T02:13:51;13.47;;;7.87;;
3733;SDS011;1882;52.256;8.874;2023-05-14T02:16:18;11.73;;;8.00;;
3733;SDS011;1882;52.256;8.874;2023-05-14T02:18:45;11.17;;;7.93;;
3733;SDS011;1882;52.256;8.874;2023-05-14T02:21:12;9.17;;;7.20;;
3733;SDS011;1882;52.256;8.874;2023-05-14T02:23:39;9.27;;;6.70;;
3733;SDS011;1882;52.256;8.874;2023-05-14T02:26:08;9.47;;;6.90;;
3733;SDS011;1882;52.256;8.874;2023-05-14T02:28:35;9.97;;;6.60;;
3733;SDS011;1882;52.256;8.874;2023-05-14T02:31:02;7.17;;;6.00;;
3733;SDS011;1882;52.256;8.874;2023-05-14T02:33:31;7.97;;;6.30;;
3733;SDS011;1882;52.256;8.874;2023-05-14T02:35:58;8.00;;;6.30;;
3733;SDS011;1882;52.256;8.874;2023-05-14T02:38:30;8.87;;;6.50;;
3733;SDS011;1882;52.256;8.874;2023-05-14T02:40:57;9.90;;;6.60;;
3733;SDS011;1882;52.256;8.874;2023-05-14T02:43:28;8.17;;;5.73;;
3733;SDS011;1882;52.256;8.874;2023-05-14T02:45:56;9.40;;;6.40;;
3733;SDS011;1882;52.256;8.874;2023-05-14T02:48:23;9.40;;;7.53;;
3733;SDS011;1882;52.256;8.874;2023-05-14T02:50:50;10.87;;;8.17;;
3733;SDS011;1882;52.256;8.874;2023-05-14T02:53:17;15.87;;;8.80;;
3733;SDS011;1882;52.256;8.874;2023-05-14T02:55:45;12.00;;;9.00;;
3733;SDS011;1882;52.256;8.874;2023-05-14T02:58:12;16.40;;;9.10;;
3733;SDS011;1882;52.256;8.874;2023-05-14T03:00:38;10.73;;;8.40;;
3733;SDS011;1882;52.256;8.874;2023-05-14T03:03:06;12.00;;;8.70;;
3733;SDS011;1882;52.256;8.874;2023-05-14T03:05:33;14.60;;;8.00;;
3733;SDS011;1882;52.256;8.874;2023-05-14T03:08:02;11.90;;;8.17;;
3733;SDS011;1882;52.256;8.874;2023-05-14T03:10:29;8.90;;;7.17;;
3733;SDS011;1882;52.256;8.874;2023-05-14T03:12:58;8.50;;;6.83;;
3733;SDS011;1882;52.256;8.874;2023-05-14T03:15:25;6.43;;;5.80;;
3733;SDS011;1882;52.256;8.874;2023-05-14T03:17:51;8.30;;;6.10;;
3733;SDS011;1882;52.256;8.874;2023-05-14T03:20:27;6.87;;;6.17;;
3733;SDS011;1882;52.256;8.874;2023-05-14T03:22:53;8.73;;;5.77;;
3733;SDS011;1882;52.256;8.874;2023-05-14T03:25:21;7.57;;;5.50;;
3733;SDS011;1882;52.256;8.874;2023-05-14T03:27:48;7.53;;;6.00;;
3733;SDS011;1882;52.256;8.874;2023-05-14T03:30:15;8.87;;;6.00;;
3733;SDS011;1882;52.256;8.874;2023-05-14T03:32:41;7.47;;;6.10;;
3733;SDS011;1882;52.256;8.874;2023-05-14T03:35:08;7.00;;;5.50;;
3733;SDS011;1882;52.256;8.874;2023-05-14T03:37:35;6.67;;;5.97;;
3733;SDS011;1882;52.256;8.874;2023-05-14T03:40:02;6.77;;;5.83;;
3733;SDS011;1882;52.256;8.874;2023-05-14T03:42:29;6.67;;;5.80;;
3733;SDS011;1882;52.256;8.874;2023-05-14T03:44:56;6.60;;;6.00;;
3733;SDS011;1882;52.256;8.874;2023-05-14T03:47:23;8.03;;;6.20;;
3733;SDS011;1882;52.256;8.874;2023-05-14T03:49:50;7.03;;;6.00;;
3733;SDS011;1882;52.256;8.874;2023-05-14T03:52:18;6.80;;;5.80;;
3733;SDS011;1882;52.256;8.874;2023-05-14T03:54:45;7.90;;;5.63;;
3733;SDS011;1882;52.256;8.874;2023-05-14T03:57:16;6.17;;;5.57;;
3733;SDS011;1882;52.256;8.874;2023-05-14T03:59:42;7.83;;;6.20;;
3733;SDS011;1882;52.256;8.874;2023-05-14T04:02:09;7.53;;;5.70;;
3733;SDS011;1882;52.256;8.874;2023-05-14T04:04:36;6.20;;;5.60;;
3733;SDS011;1882;52.256;8.874;2023-05-14T04:07:03;6.30;;;5.53;;
3733;SDS011;1882;52.256;8.874;2023-05-14T04:09:30;8.30;;;6.50;;
3733;SDS011;1882;52.256;8.874;2023-05-14T04:11:56;6.00;;;5.40;;
3733;SDS011;1882;52.256;8.874;2023-05-14T04:14:23;8.00;;;6.10;;
3733;SDS011;1882;52.256;8.874;2023-05-14T04:16:50;6.63;;;5.70;;
3733;SDS011;1882;52.256;8.874;2023-05-14T04:19:16;8.63;;;5.63;;
3733;SDS011;1882;52.256;8.874;2023-05-14T04:21:44;5.80;;;5.20;;
3733;SDS011;1882;52.256;8.874;2023-05-14T04:24:10;5.67;;;5.17;;
3733;SDS011;1882;52.256;8.874;2023-05-14T04:26:37;5.40;;;4.90;;
3733;SDS011;1882;52.256;8.874;2023-05-14T04:29:04;6.00;;;4.80;;
3733;SDS011;1882;52.256;8.874;2023-05-14T04:31:31;5.17;;;4.63;;
3733;SDS011;1882;52.256;8.874;2023-05-14T04:33:58;5.83;;;4.83;;
3733;SDS011;1882;52.256;8.874;2023-05-14T04:36:25;5.20;;;4.70;;
3733;SDS011;1882;52.256;8.874;2023-05-14T04:38:54;6.90;;;4.80;;
3733;SDS011;1882;52.256;8.874;2023-05-14T04:41:21;6.27;;;4.90;;
3733;SDS011;1882;52.256;8.874;2023-05-14T04:43:54;5.10;;;4.60;;
3733;SDS011;1882;52.256;8.874;2023-05-14T04:46:31;6.10;;;4.70;;
3733;SDS011;1882;52.256;8.874;2023-05-14T04:49:00;5.90;;;4.77;;
3733;SDS011;1882;52.256;8.874;2023-05-14T04:51:28;4.90;;;4.50;;
3733;SDS011;1882;52.256;8.874;2023-05-14T04:53:56;5.20;;;4.70;;
3733;SDS011;1882;52.256;8.874;2023-05-14T04:56:24;5.83;;;4.90;;
3733;SDS011;1882;52.256;8.874;2023-05-14T04:58:51;5.43;;;4.67;;
3733;SDS011;1882;52.256;8.874;2023-05-14T05:01:19;5.80;;;5.20;;
3733;SDS011;1882;52.256;8.874;2023-05-14T05:03:52;6.20;;;5.43;;
3733;SDS011;1882;52.256;8.874;2023-05-14T05:06:18;10.10;;;5.33;;
3733;SDS011;1882;52.256;8.874;2023-05-14T05:08:46;6.60;;;5.53;;
3733;SDS011;1882;52.256;8.874;2023-05-14T05:11:13;6.10;;;5.50;;
3733;SDS011;1882;52.256;8.874;2023-05-14T05:13:40;5.90;;;5.30;;
3733;SDS011;1882;52.256;8.874;2023-05-14T05:16:06;5.57;;;5.07;;
3733;SDS011;1882;52.256;8.874;2023-05-14T05:18:36;7.90;;;5.20;;
3733;SDS011;1882;52.256;8.874;2023-05-14T05:21:05;6.67;;;6.03;;
3733;SDS011;1882;52.256;8.874;2023-05-14T05:23:32;6.10;;;5.37;;
3733;SDS011;1882;52.256;8.874;2023-05-14T05:25:59;6.67;;;5.57;;
3733;SDS011;1882;52.256;8.874;2023-05-14T05:28:29;10.53;;;6.30;;
3733;SDS011;1882;52.256;8.874;2023-05-14T05:30:55;8.10;;;6.13;;
3733;SDS011;1882;52.256;8.874;2023-05-14T05:33:26;6.83;;;6.13;;
3733;SDS011;1882;52.256;8.874;2023-05-14T05:35:58;7.23;;;6.57;;
3733;SDS011;1882;52.256;8.874;2023-05-14T05:38:25;8.03;;;6.70;;
3733;SDS011;1882;52.256;8.874;2023-05-14T05:40:58;7.03;;;6.43;;
3733;SDS011;1882;52.256;8.874;2023-05-14T05:43:39;6.37;;;5.77;;
3733;SDS011;1882;52.256;8.874;2023-05-14T05:46:11;6.17;;;5.57;;
3733;SDS011;1882;52.256;8.874;2023-05-14T05:48:38;6.80;;;5.80;;
3733;SDS011;1882;52.256;8.874;2023-05-14T05:51:05;6.03;;;5.30;;
3733;SDS011;1882;52.256;8.874;2023-05-14T05:53:34;6.63;;;5.70;;
3733;SDS011;1882;52.256;8.874;2023-05-14T05:56:04;5.40;;;5.00;;
3733;SDS011;1882;52.256;8.874;2023-05-14T05:58:32;8.57;;;5.40;;
3733;SDS011;1882;52.256;8.874;2023-05-14T06:00:59;7.90;;;5.90;;
3733;SDS011;1882;52.256;8.874;2023-05-14T06:03:26;8.43;;;5.73;;
3733;SDS011;1882;52.256;8.874;2023-05-14T06:05:53;6.80;;;5.77;;
3733;SDS011;1882;52.256;8.874;2023-05-14T06:08:20;6.10;;;5.50;;
3733;SDS011;1882;52.256;8.874;2023-05-14T06:10:46;6.20;;;5.30;;
3733;SDS011;1882;52.256;8.874;2023-05-14T06:13:13;6.13;;;5.10;;
3733;SDS011;1882;52.256;8.874;2023-05-14T06:15:40;5.43;;;4.93;;
3733;SDS011;1882;52.256;8.874;2023-05-14T06:18:06;5.77;;;5.30;;
3733;SDS011;1882;52.256;8.874;2023-05-14T06:20:33;5.73;;;5.10;;
3733;SDS011;1882;52.256;8.874;2023-05-14T06:23:00;6.20;;;5.60;;
3733;SDS011;1882;52.256;8.874;2023-05-14T06:25:27;6.10;;;5.60;;
3733;SDS011;1882;52.256;8.874;2023-05-14T06:27:54;5.90;;;5.13;;
3733;SDS011;1882;52.256;8.874;2023-05-14T06:30:21;6.77;;;5.40;;
3733;SDS011;1882;52.256;8.874;2023-05-14T06:32:48;6.47;;;5.40;;
3733;SDS011;1882;52.256;8.874;2023-05-14T06:35:15;6.60;;;5.73;;
3733;SDS011;1882;52.256;8.874;2023-05-14T06:37:42;6.10;;;5.50;;
3733;SDS011;1882;52.256;8.874;2023-05-14T06:40:09;6.33;;;5.30;;
3733;SDS011;1882;52.256;8.874;2023-05-14T06:42:36;6.40;;;5.37;;
3733;SDS011;1882;52.256;8.874;2023-05-14T06:45:04;6.70;;;6.10;;
3733;SDS011;1882;52.256;8.874;2023-05-14T06:47:31;7.00;;;5.80;;
3733;SDS011;1882;52.256;8.874;2023-05-14T06:49:58;6.03;;;5.50;;
3733;SDS011;1882;52.256;8.874;2023-05-14T06:52:29;5.80;;;5.30;;
3733;SDS011;1882;52.256;8.874;2023-05-14T06:54:56;7.20;;;6.50;;
3733;SDS011;1882;52.256;8.874;2023-05-14T06:57:25;6.90;;;5.80;;
3733;SDS011;1882;52.256;8.874;2023-05-14T06:59:55;6.43;;;5.83;;
3733;SDS011;1882;52.256;8.874;2023-05-14T07:02:29;7.00;;;5.83;;
3733;SDS011;1882;52.256;8.874;2023-05-14T07:04:58;6.83;;;6.03;;
3733;SDS011;1882;52.256;8.874;2023-05-14T07:07:27;6.53;;;5.93;;
3733;SDS011;1882;52.256;8.874;2023-05-14T07:09:56;6.43;;;5.83;;
3733;SDS011;1882;52.256;8.874;2023-05-14T07:12:22;6.40;;;5.80;;
3733;SDS011;1882;52.256;8.874;2023-05-14T07:14:50;10.73;;;6.00;;
3733;SDS011;1882;52.256;8.874;2023-05-14T07:17:21;8.80;;;5.53;;
3733;SDS011;1882;52.256;8.874;2023-05-14T07:19:58;6.23;;;5.63;;
3733;SDS011;1882;52.256;8.874;2023-05-14T07:22:25;5.93;;;5.13;;
3733;SDS011;1882;52.256;8.874;2023-05-14T07:24:59;6.53;;;5.17;;
3733;SDS011;1882;52.256;8.874;2023-05-14T07:27:32;6.17;;;5.57;;
3733;SDS011;1882;52.256;8.874;2023-05-14T07:30:02;5.77;;;5.27;;
3733;SDS011;1882;52.256;8.874;2023-05-14T07:32:31;6.13;;;5.53;;
3733;SDS011;1882;52.256;8.874;2023-05-14T07:35:00;6.07;;;5.47;;
3733;SDS011;1882;52.256;8.874;2023-05-14T07:37:27;6.27;;;5.67;;
3733;SDS011;1882;52.256;8.874;2023-05-14T07:39:56;5.83;;;5.23;;
3733;SDS011;1882;52.256;8.874;2023-05-14T07:42:24;7.10;;;5.83;;
3733;SDS011;1882;52.256;8.874;2023-05-14T07:45:01;5.60;;;5.10;;
3733;SDS011;1882;52.256;8.874;2023-05-14T07:47:28;5.50;;;5.00;;
3733;SDS011;1882;52.256;8.874;2023-05-14T07:49:56;5.97;;;5.30;;
3733;SDS011;1882;52.256;8.874;2023-05-14T07:52:23;5.53;;;5.07;;
3733;SDS011;1882;52.256;8.874;2023-05-14T07:54:50;5.50;;;5.00;;
3733;SDS011;1882;52.256;8.874;2023-05-14T07:57:18;6.97;;;5.03;;
3733;SDS011;1882;52.256;8.874;2023-05-14T07:59:45;5.40;;;4.90;;
3733;SDS011;1882;52.256;8.874;2023-05-14T08:02:14;8.30;;;5.47;;
3733;SDS011;1882;52.256;8.874;2023-05-14T08:04:42;6.63;;;5.30;;
3733;SDS011;1882;52.256;8.874;2023-05-14T08:07:10;4.93;;;4.50;;
3733;SDS011;1882;52.256;8.874;2023-05-14T08:09:37;5.57;;;5.07;;
3733;SDS011;1882;52.256;8.874;2023-05-14T08:12:08;6.63;;;4.90;;
3733;SDS011;1882;52.256;8.874;2023-05-14T08:14:35;5.17;;;4.67;;
3733;SDS011;1882;52.256;8.874;2023-05-14T08:17:02;6.10;;;4.40;;
3733;SDS011;1882;52.256;8.874;2023-05-14T08:19:29;4.77;;;4.37;;
3733;SDS011;1882;52.256;8.874;2023-05-14T08:21:56;5.30;;;4.80;;
3733;SDS011;1882;52.256;8.874;2023-05-14T08:24:25;8.17;;;5.10;;
3733;SDS011;1882;52.256;8.874;2023-05-14T08:26:52;5.70;;;4.50;;
3733;SDS011;1882;52.256;8.874;2023-05-14T08:29:19;4.90;;;4.50;;
3733;SDS011;1882;52.256;8.874;2023-05-14T08:31:46;4.53;;;4.13;;
3733;SDS011;1882;52.256;8.874;2023-05-14T08:34:14;4.87;;;4.40;;
3733;SDS011;1882;52.256;8.874;2023-05-14T08:36:43;5.70;;;4.80;;
3733;SDS011;1882;52.256;8.874;2023-05-14T08:39:10;6.83;;;4.80;;
3733;SDS011;1882;52.256;8.874;2023-05-14T08:41:37;5.57;;;4.83;;
3733;SDS011;1882;52.256;8.874;2023-05-14T08:44:06;5.30;;;4.27;;
3733;SDS011;1882;52.256;8.874;2023-05-14T08:46:40;5.83;;;4.70;;
3733;SDS011;1882;52.256;8.874;2023-05-14T08:51:52;4.37;;;4.03;;
3733;SDS011;1882;52.256;8.874;2023-05-14T08:54:19;7.33;;;4.27;;
3733;SDS011;1882;52.256;8.874;2023-05-14T08:56:49;5.20;;;4.70;;
3733;SDS011;1882;52.256;8.874;2023-05-14T08:59:17;6.07;;;4.97;;
3733;SDS011;1882;52.256;8.874;2023-05-14T09:01:48;5.40;;;4.90;;
3733;SDS011;1882;52.256;8.874;2023-05-14T09:04:21;8.10;;;4.80;;
3733;SDS011;1882;52.256;8.874;2023-05-14T09:06:49;5.23;;;4.73;;
3733;SDS011;1882;52.256;8.874;2023-05-14T09:09:17;4.97;;;4.47;;
3733;SDS011;1882;52.256;8.874;2023-05-14T09:11:44;5.30;;;4.90;;
3733;SDS011;1882;52.256;8.874;2023-05-14T09:14:12;5.20;;;4.70;;
3733;SDS011;1882;52.256;8.874;2023-05-14T09:16:38;4.60;;;4.20;;
3733;SDS011;1882;52.256;8.874;2023-05-14T09:19:08;5.13;;;4.20;;
3733;SDS011;1882;52.256;8.874;2023-05-14T09:21:34;6.63;;;4.40;;
3733;SDS011;1882;52.256;8.874;2023-05-14T09:24:02;5.20;;;4.10;;
3733;SDS011;1882;52.256;8.874;2023-05-14T09:26:30;4.63;;;4.10;;
3733;SDS011;1882;52.256;8.874;2023-05-14T09:28:58;4.73;;;4.33;;
3733;SDS011;1882;52.256;8.874;2023-05-14T09:31:29;5.83;;;4.50;;
3733;SDS011;1882;52.256;8.874;2023-05-14T09:33:58;4.97;;;4.57;;
3733;SDS011;1882;52.256;8.874;2023-05-14T09:36:26;4.07;;;3.77;;
3733;SDS011;1882;52.256;8.874;2023-05-14T09:38:57;4.77;;;4.20;;
3733;SDS011;1882;52.256;8.874;2023-05-14T09:41:24;6.43;;;4.60;;
3733;SDS011;1882;52.256;8.874;2023-05-14T09:43:51;5.63;;;4.60;;
3733;SDS011;1882;52.256;8.874;2023-05-14T09:46:18;8.33;;;4.63;;
3733;SDS011;1882;52.256;8.874;2023-05-14T09:48:44;4.93;;;4.53;;
3733;SDS011;1882;52.256;8.874;2023-05-14T09:51:13;6.37;;;4.60;;
3733;SDS011;1882;52.256;8.874;2023-05-14T09:53:40;4.60;;;4.20;;
3733;SDS011;1882;52.256;8.874;2023-05-14T09:56:09;4.83;;;4.43;;
3733;SDS011;1882;52.256;8.874;2023-05-14T09:58:36;5.53;;;5.03;;
3733;SDS011;1882;52.256;8.874;2023-05-14T10:01:03;6.63;;;4.87;;
3733;SDS011;1882;52.256;8.874;2023-05-14T10:03:30;5.20;;;4.70;;
3733;SDS011;1882;52.256;8.874;2023-05-14T10:05:59;5.47;;;4.47;;
3733;SDS011;1882;52.256;8.874;2023-05-14T10:08:32;7.07;;;4.13;;
3733;SDS011;1882;52.256;8.874;2023-05-14T10:11:04;5.43;;;3.60;;
3733;SDS011;1882;52.256;8.874;2023-05-14T10:13:54;4.60;;;4.20;;
3733;SDS011;1882;52.256;8.874;2023-05-14T10:16:30;4.40;;;4.00;;
3733;SDS011;1882;52.256;8.874;2023-05-14T10:19:00;4.70;;;3.97;;
3733;SDS011;1882;52.256;8.874;2023-05-14T10:21:32;5.33;;;4.27;;
3733;SDS011;1882;52.256;8.874;2023-05-14T10:24:04;5.47;;;3.80;;
3733;SDS011;1882;52.256;8.874;2023-05-14T10:26:34;6.20;;;3.90;;
3733;SDS011;1882;52.256;8.874;2023-05-14T10:29:05;3.90;;;3.60;;
3733;SDS011;1882;52.256;8.874;2023-05-14T10:31:48;3.50;;;3.23;;
3733;SDS011;1882;52.256;8.874;2023-05-14T10:34:35;7.07;;;3.57;;
3733;SDS011;1882;52.256;8.874;2023-05-14T10:37:04;3.80;;;3.47;;
3733;SDS011;1882;52.256;8.874;2023-05-14T10:42:10;4.27;;;3.37;;
3733;SDS011;1882;52.256;8.874;2023-05-14T10:47:21;3.50;;;3.20;;
3733;SDS011;1882;52.256;8.874;2023-05-14T10:49:48;3.83;;;3.53;;
3733;SDS011;1882;52.256;8.874;2023-05-14T10:52:21;3.13;;;2.90;;
3733;SDS011;1882;52.256;8.874;2023-05-14T10:57:57;3.20;;;2.90;;
3733;SDS011;1882;52.256;8.874;2023-05-14T11:03:29;4.40;;;4.00;;
3733;SDS011;1882;52.256;8.874;2023-05-14T11:06:21;4.07;;;3.67;;
3733;SDS011;1882;52.256;8.874;2023-05-14T11:09:18;3.97;;;3.47;;
3733;SDS011;1882;52.256;8.874;2023-05-14T11:12:20;3.47;;;3.17;;
3733;SDS011;1882;52.256;8.874;2023-05-14T11:14:56;3.00;;;2.70;;
3733;SDS011;1882;52.256;8.874;2023-05-14T11:17:25;4.07;;;3.77;;
3733;SDS011;1882;52.256;8.874;2023-05-14T11:19:55;2.63;;;2.43;;
3733;SDS011;1882;52.256;8.874;2023-05-14T11:22:23;3.30;;;2.70;;
3733;SDS011;1882;52.256;8.874;2023-05-14T11:24:50;3.07;;;2.87;;
3733;SDS011;1882;52.256;8.874;2023-05-14T11:27:17;2.97;;;2.77;;
3733;SDS011;1882;52.256;8.874;2023-05-14T11:29:45;2.50;;;2.40;;
3733;SDS011;1882;52.256;8.874;2023-05-14T11:32:13;3.10;;;2.90;;
3733;SDS011;1882;52.256;8.874;2023-05-14T11:34:41;3.10;;;2.90;;
3733;SDS011;1882;52.256;8.874;2023-05-14T11:37:10;3.90;;;2.80;;
3733;SDS011;1882;52.256;8.874;2023-05-14T11:39:38;3.43;;;3.13;;
3733;SDS011;1882;52.256;8.874;2023-05-14T11:42:10;3.70;;;2.83;;
3733;SDS011;1882;52.256;8.874;2023-05-14T11:44:39;3.00;;;2.80;;
3733;SDS011;1882;52.256;8.874;2023-05-14T11:47:12;4.63;;;3.50;;
3733;SDS011;1882;52.256;8.874;2023-05-14T11:49:45;3.83;;;3.27;;
3733;SDS011;1882;52.256;8.874;2023-05-14T11:52:18;3.47;;;3.27;;
3733;SDS011;1882;52.256;8.874;2023-05-14T11:54:47;4.20;;;3.80;;
3733;SDS011;1882;52.256;8.874;2023-05-14T11:57:39;3.80;;;3.50;;
3733;SDS011;1882;52.256;8.874;2023-05-14T12:00:27;6.80;;;3.80;;
3733;SDS011;1882;52.256;8.874;2023-05-14T12:03:04;3.90;;;3.60;;
3733;SDS011;1882;52.256;8.874;2023-05-14T12:05:32;11.63;;;3.97;;
3733;SDS011;1882;52.256;8.874;2023-05-14T12:07:58;4.07;;;3.40;;
3733;SDS011;1882;52.256;8.874;2023-05-14T12:10:25;3.90;;;3.60;;
3733;SDS011;1882;52.256;8.874;2023-05-14T12:12:54;3.80;;;3.50;;
3733;SDS011;1882;52.256;8.874;2023-05-14T12:15:27;4.10;;;3.80;;
3733;SDS011;1882;52.256;8.874;2023-05-14T12:17:54;4.10;;;3.70;;
3733;SDS011;1882;52.256;8.874;2023-05-14T12:20:21;4.33;;;3.93;;
3733;SDS011;1882;52.256;8.874;2023-05-14T12:22:51;4.07;;;3.73;;
3733;SDS011;1882;52.256;8.874;2023-05-14T12:25:23;4.60;;;4.20;;
3733;SDS011;1882;52.256;8.874;2023-05-14T12:27:51;6.47;;;3.60;;
3733;SDS011;1882;52.256;8.874;2023-05-14T12:30:18;4.07;;;3.67;;
3733;SDS011;1882;52.256;8.874;2023-05-14T12:32:59;3.40;;;3.17;;
3733;SDS011;1882;52.256;8.874;2023-05-14T12:35:26;4.53;;;3.70;;
3733;SDS011;1882;52.256;8.874;2023-05-14T12:37:59;4.00;;;3.70;;
3733;SDS011;1882;52.256;8.874;2023-05-14T12:43:27;4.17;;;3.80;;
3733;SDS011;1882;52.256;8.874;2023-05-14T12:46:13;4.17;;;3.77;;
3733;SDS011;1882;52.256;8.874;2023-05-14T12:48:43;5.33;;;4.00;;
3733;SDS011;1882;52.256;8.874;2023-05-14T12:51:11;4.37;;;3.97;;
3733;SDS011;1882;52.256;8.874;2023-05-14T12:53:37;4.27;;;3.87;;
3733;SDS011;1882;52.256;8.874;2023-05-14T12:56:05;4.60;;;4.13;;
3733;SDS011;1882;52.256;8.874;2023-05-14T12:58:33;4.10;;;3.70;;
3733;SDS011;1882;52.256;8.874;2023-05-14T13:01:01;4.40;;;4.00;;
3733;SDS011;1882;52.256;8.874;2023-05-14T13:03:29;4.97;;;3.80;;
3733;SDS011;1882;52.256;8.874;2023-05-14T13:05:59;6.93;;;4.03;;
3733;SDS011;1882;52.256;8.874;2023-05-14T13:08:27;4.60;;;4.20;;
3733;SDS011;1882;52.256;8.874;2023-05-14T13:10:55;4.40;;;4.00;;
3733;SDS011;1882;52.256;8.874;2023-05-14T13:13:22;7.77;;;4.37;;
3733;SDS011;1882;52.256;8.874;2023-05-14T13:15:51;4.50;;;4.10;;
3733;SDS011;1882;52.256;8.874;2023-05-14T13:18:18;5.60;;;4.20;;
3733;SDS011;1882;52.256;8.874;2023-05-14T13:20:45;4.70;;;4.10;;
3733;SDS011;1882;52.256;8.874;2023-05-14T13:23:13;5.83;;;4.67;;
3733;SDS011;1882;52.256;8.874;2023-05-14T13:25:41;5.63;;;4.60;;
3733;SDS011;1882;52.256;8.874;2023-05-14T13:28:12;5.13;;;4.63;;
3733;SDS011;1882;52.256;8.874;2023-05-14T13:30:39;6.33;;;4.77;;
3733;SDS011;1882;52.256;8.874;2023-05-14T13:33:06;7.63;;;4.93;;
3733;SDS011;1882;52.256;8.874;2023-05-14T13:35:33;5.17;;;4.67;;
3733;SDS011;1882;52.256;8.874;2023-05-14T13:38:00;5.53;;;4.80;;
3733;SDS011;1882;52.256;8.874;2023-05-14T13:40:27;5.20;;;4.70;;
3733;SDS011;1882;52.256;8.874;2023-05-14T13:42:54;5.50;;;5.00;;
3733;SDS011;1882;52.256;8.874;2023-05-14T13:45:21;6.17;;;4.93;;
3733;SDS011;1882;52.256;8.874;2023-05-14T13:47:58;5.10;;;4.67;;
3733;SDS011;1882;52.256;8.874;2023-05-14T13:50:28;8.43;;;5.00;;
3733;SDS011;1882;52.256;8.874;2023-05-14T13:52:54;5.90;;;4.20;;
3733;SDS011;1882;52.256;8.874;2023-05-14T13:55:21;4.83;;;4.30;;
3733;SDS011;1882;52.256;8.874;2023-05-14T13:57:54;5.20;;;4.37;;
3733;SDS011;1882;52.256;8.874;2023-05-14T14:00:22;7.33;;;4.70;;
3733;SDS011;1882;52.256;8.874;2023-05-14T14:02:51;5.20;;;4.10;;
3733;SDS011;1882;52.256;8.874;2023-05-14T14:05:25;4.97;;;4.20;;
3733;SDS011;1882;52.256;8.874;2023-05-14T14:07:56;10.77;;;4.67;;
3733;SDS011;1882;52.256;8.874;2023-05-14T14:10:38;7.33;;;5.00;;
3733;SDS011;1882;52.256;8.874;2023-05-14T14:13:06;5.10;;;4.70;;
3733;SDS011;1882;52.256;8.874;2023-05-14T14:15:38;7.10;;;5.37;;
3733;SDS011;1882;52.256;8.874;2023-05-14T14:18:05;5.17;;;4.73;;
3733;SDS011;1882;52.256;8.874;2023-05-14T14:20:32;6.10;;;5.50;;
3733;SDS011;1882;52.256;8.874;2023-05-14T14:22:59;5.80;;;5.20;;
3733;SDS011;1882;52.256;8.874;2023-05-14T14:25:25;6.60;;;5.50;;
3733;SDS011;1882;52.256;8.874;2023-05-14T14:28:00;5.97;;;5.37;;
3733;SDS011;1882;52.256;8.874;2023-05-14T14:30:27;5.50;;;5.00;;
3733;SDS011;1882;52.256;8.874;2023-05-14T14:32:54;5.60;;;5.10;;
3733;SDS011;1882;52.256;8.874;2023-05-14T14:35:21;5.67;;;5.13;;
3733;SDS011;1882;52.256;8.874;2023-05-14T14:37:51;7.30;;;5.27;;
3733;SDS011;1882;52.256;8.874;2023-05-14T14:40:21;6.13;;;5.47;;
3733;SDS011;1882;52.256;8.874;2023-05-14T14:42:51;5.93;;;5.43;;
3733;SDS011;1882;52.256;8.874;2023-05-14T14:45:22;5.87;;;5.37;;
3733;SDS011;1882;52.256;8.874;2023-05-14T14:47:49;6.37;;;5.10;;
3733;SDS011;1882;52.256;8.874;2023-05-14T14:50:16;5.70;;;5.20;;
3733;SDS011;1882;52.256;8.874;2023-05-14T14:52:43;6.27;;;5.00;;
3733;SDS011;1882;52.256;8.874;2023-05-14T14:55:11;7.03;;;5.27;;
3733;SDS011;1882;52.256;8.874;2023-05-14T14:57:38;5.63;;;5.13;;
3733;SDS011;1882;52.256;8.874;2023-05-14T15:00:05;5.63;;;5.13;;
3733;SDS011;1882;52.256;8.874;2023-05-14T15:02:32;9.00;;;5.20;;
3733;SDS011;1882;52.256;8.874;2023-05-14T15:05:00;5.93;;;5.37;;
3733;SDS011;1882;52.256;8.874;2023-05-14T15:07:27;10.13;;;5.50;;
3733;SDS011;1882;52.256;8.874;2023-05-14T15:09:57;6.00;;;5.40;;
3733;SDS011;1882;52.256;8.874;2023-05-14T15:12:24;5.53;;;5.07;;
3733;SDS011;1882;52.256;8.874;2023-05-14T15:14:51;5.87;;;5.27;;
3733;SDS011;1882;52.256;8.874;2023-05-14T15:17:18;5.80;;;5.30;;
3733;SDS011;1882;52.256;8.874;2023-05-14T15:19:45;6.00;;;5.37;;
3733;SDS011;1882;52.256;8.874;2023-05-14T15:22:11;6.17;;;5.10;;
3733;SDS011;1882;52.256;8.874;2023-05-14T15:24:41;6.07;;;5.33;;
3733;SDS011;1882;52.256;8.874;2023-05-14T15:27:08;6.00;;;5.40;;
3733;SDS011;1882;52.256;8.874;2023-05-14T15:29:35;7.27;;;5.70;;
3733;SDS011;1882;52.256;8.874;2023-05-14T15:32:02;6.80;;;5.90;;
3733;SDS011;1882;52.256;8.874;2023-05-14T15:34:30;6.37;;;5.77;;
3733;SDS011;1882;52.256;8.874;2023-05-14T15:36:58;6.00;;;5.50;;
3733;SDS011;1882;52.256;8.874;2023-05-14T15:39:27;6.43;;;5.83;;
3733;SDS011;1882;52.256;8.874;2023-05-14T15:41:55;5.93;;;5.17;;
3733;SDS011;1882;52.256;8.874;2023-05-14T15:44:22;9.67;;;5.90;;